sensor_id;sensor_type;location;lat;lon;timestamp;P1;durP1;ratioP1;P2;durP2;ratioP2
11414;SDS011;5763;42.714;23.244;2023-12-22T00:02:07;8.35;;;3.78;;
11414;SDS011;5763;42.714;23.244;2023-12-22T00:04:34;9.00;;;5.18;;
11414;SDS011;5763;42.714;23.244;2023-12-22T00:07:03;6.20;;;5.20;;
11414;SDS011;5763;42.714;23.244;2023-12-22T00:09:30;5.50;;;3.53;;
11414;SDS011;5763;42.714;23.244;2023-12-22T00:11:58;8.45;;;4.70;;
11414;SDS011;5763;42.714;23.244;2023-12-22T00:14:25;4.70;;;3.95;;
11414;SDS011;5763;42.714;23.244;2023-12-22T00:16:52;6.30;;;5.35;;
11414;SDS011;5763;42.714;23.244;2023-12-22T00:19:19;6.90;;;4.35;;
11414;SDS011;5763;42.714;23.244;2023-12-22T00:21:46;6.88;;;5.15;;
11414;SDS011;5763;42.714;23.244;2023-12-22T00:24:15;6.45;;;4.57;;
11414;SDS011;5763;42.714;23.244;2023-12-22T00:26:42;15.35;;;4.70;;
11414;SDS011;5763;42.714;23.244;2023-12-22T00:29:09;8.13;;;4.85;;
11414;SDS011;5763;42.714;23.244;2023-12-22T00:31:36;11.95;;;5.80;;
11414;SDS011;5763;42.714;23.244;2023-12-22T00:34:04;10.40;;;5.32;;
11414;SDS011;5763;42.714;23.244;2023-12-22T00:36:31;8.45;;;4.60;;
11414;SDS011;5763;42.714;23.244;2023-12-22T00:38:58;7.03;;;4.25;;
11414;SDS011;5763;42.714;23.244;2023-12-22T00:41:26;6.78;;;4.78;;
11414;SDS011;5763;42.714;23.244;2023-12-22T00:43:54;7.78;;;4.25;;
11414;SDS011;5763;42.714;23.244;2023-12-22T00:46:21;13.10;;;5.93;;
11414;SDS011;5763;42.714;23.244;2023-12-22T00:48:48;5.10;;;3.58;;
11414;SDS011;5763;42.714;23.244;2023-12-22T00:51:15;7.93;;;5.15;;
11414;SDS011;5763;42.714;23.244;2023-12-22T00:53:43;6.70;;;4.75;;
11414;SDS011;5763;42.714;23.244;2023-12-22T00:56:10;11.35;;;5.95;;
11414;SDS011;5763;42.714;23.244;2023-12-22T00:58:40;7.32;;;3.85;;
11414;SDS011;5763;42.714;23.244;2023-12-22T01:01:07;10.93;;;5.20;;
11414;SDS011;5763;42.714;23.244;2023-12-22T01:03:34;5.47;;;3.20;;
11414;SDS011;5763;42.714;23.244;2023-12-22T01:06:01;10.38;;;4.18;;
11414;SDS011;5763;42.714;23.244;2023-12-22T01:08:28;2.90;;;2.70;;
11414;SDS011;5763;42.714;23.244;2023-12-22T01:10:56;6.97;;;4.32;;
11414;SDS011;5763;42.714;23.244;2023-12-22T01:13:23;5.85;;;2.63;;
11414;SDS011;5763;42.714;23.244;2023-12-22T01:15:51;7.70;;;3.47;;
11414;SDS011;5763;42.714;23.244;2023-12-22T01:18:18;5.97;;;3.00;;
11414;SDS011;5763;42.714;23.244;2023-12-22T01:20:46;6.90;;;3.58;;
11414;SDS011;5763;42.714;23.244;2023-12-22T01:23:14;8.05;;;2.55;;
11414;SDS011;5763;42.714;23.244;2023-12-22T01:25:41;3.97;;;2.22;;
11414;SDS011;5763;42.714;23.244;2023-12-22T01:28:09;5.18;;;2.53;;
11414;SDS011;5763;42.714;23.244;2023-12-22T01:30:36;2.88;;;2.17;;
11414;SDS011;5763;42.714;23.244;2023-12-22T01:33:05;4.28;;;2.53;;
11414;SDS011;5763;42.714;23.244;2023-12-22T01:35:32;8.13;;;3.15;;
11414;SDS011;5763;42.714;23.244;2023-12-22T01:37:59;5.63;;;2.65;;
11414;SDS011;5763;42.714;23.244;2023-12-22T01:40:26;3.85;;;2.50;;
11414;SDS011;5763;42.714;23.244;2023-12-22T01:42:54;5.50;;;3.00;;
11414;SDS011;5763;42.714;23.244;2023-12-22T01:45:21;5.20;;;2.63;;
11414;SDS011;5763;42.714;23.244;2023-12-22T01:47:48;4.30;;;2.55;;
11414;SDS011;5763;42.714;23.244;2023-12-22T01:50:17;4.57;;;3.20;;
11414;SDS011;5763;42.714;23.244;2023-12-22T01:52:44;3.50;;;2.55;;
11414;SDS011;5763;42.714;23.244;2023-12-22T01:55:12;5.85;;;3.00;;
11414;SDS011;5763;42.714;23.244;2023-12-22T02:00:27;4.88;;;2.75;;
11414;SDS011;5763;42.714;23.244;2023-12-22T02:02:55;6.22;;;2.42;;
11414;SDS011;5763;42.714;23.244;2023-12-22T02:05:23;4.72;;;2.35;;
11414;SDS011;5763;42.714;23.244;2023-12-22T02:07:50;2.15;;;1.88;;
11414;SDS011;5763;42.714;23.244;2023-12-22T02:10:18;1.77;;;1.15;;
11414;SDS011;5763;42.714;23.244;2023-12-22T02:12:45;7.25;;;3.47;;
11414;SDS011;5763;42.714;23.244;2023-12-22T02:15:17;5.18;;;2.25;;
11414;SDS011;5763;42.714;23.244;2023-12-22T02:17:48;3.80;;;2.50;;
11414;SDS011;5763;42.714;23.244;2023-12-22T02:20:19;4.78;;;2.72;;
11414;SDS011;5763;42.714;23.244;2023-12-22T02:22:52;1.55;;;1.45;;
11414;SDS011;5763;42.714;23.244;2023-12-22T02:25:19;6.40;;;2.58;;
11414;SDS011;5763;42.714;23.244;2023-12-22T02:27:47;2.83;;;1.90;;
11414;SDS011;5763;42.714;23.244;2023-12-22T02:30:17;5.95;;;3.05;;
11414;SDS011;5763;42.714;23.244;2023-12-22T02:32:51;4.13;;;2.17;;
11414;SDS011;5763;42.714;23.244;2023-12-22T02:35:24;4.22;;;2.47;;
11414;SDS011;5763;42.714;23.244;2023-12-22T02:37:54;3.10;;;2.75;;
11414;SDS011;5763;42.714;23.244;2023-12-22T02:40:24;1.98;;;1.77;;
11414;SDS011;5763;42.714;23.244;2023-12-22T02:42:53;3.92;;;2.47;;
11414;SDS011;5763;42.714;23.244;2023-12-22T02:45:20;4.72;;;2.85;;
11414;SDS011;5763;42.714;23.244;2023-12-22T02:47:47;3.42;;;2.53;;
11414;SDS011;5763;42.714;23.244;2023-12-22T02:50:16;6.35;;;3.53;;
11414;SDS011;5763;42.714;23.244;2023-12-22T02:52:43;4.25;;;2.75;;
11414;SDS011;5763;42.714;23.244;2023-12-22T02:55:12;7.30;;;2.83;;
11414;SDS011;5763;42.714;23.244;2023-12-22T02:57:39;7.68;;;3.65;;
11414;SDS011;5763;42.714;23.244;2023-12-22T03:00:06;5.43;;;3.35;;
11414;SDS011;5763;42.714;23.244;2023-12-22T03:02:34;5.97;;;3.63;;
11414;SDS011;5763;42.714;23.244;2023-12-22T03:05:01;8.32;;;3.90;;
11414;SDS011;5763;42.714;23.244;2023-12-22T03:07:29;5.70;;;3.85;;
11414;SDS011;5763;42.714;23.244;2023-12-22T03:09:56;4.25;;;3.10;;
11414;SDS011;5763;42.714;23.244;2023-12-22T03:12:25;7.47;;;3.95;;
11414;SDS011;5763;42.714;23.244;2023-12-22T03:14:52;9.82;;;4.25;;
11414;SDS011;5763;42.714;23.244;2023-12-22T03:17:19;7.68;;;4.20;;
11414;SDS011;5763;42.714;23.244;2023-12-22T03:19:46;5.63;;;3.25;;
11414;SDS011;5763;42.714;23.244;2023-12-22T03:22:13;8.75;;;3.85;;
11414;SDS011;5763;42.714;23.244;2023-12-22T03:24:41;7.78;;;4.05;;
11414;SDS011;5763;42.714;23.244;2023-12-22T03:27:08;6.32;;;3.38;;
11414;SDS011;5763;42.714;23.244;2023-12-22T03:29:37;5.47;;;3.63;;
11414;SDS011;5763;42.714;23.244;2023-12-22T03:32:04;5.53;;;3.70;;
11414;SDS011;5763;42.714;23.244;2023-12-22T03:34:31;5.25;;;3.80;;
11414;SDS011;5763;42.714;23.244;2023-12-22T03:36:59;6.20;;;3.90;;
11414;SDS011;5763;42.714;23.244;2023-12-22T03:39:26;5.18;;;3.10;;
11414;SDS011;5763;42.714;23.244;2023-12-22T03:41:53;9.05;;;3.92;;
11414;SDS011;5763;42.714;23.244;2023-12-22T03:44:20;7.28;;;3.05;;
11414;SDS011;5763;42.714;23.244;2023-12-22T03:46:51;6.43;;;3.28;;
11414;SDS011;5763;42.714;23.244;2023-12-22T03:49:18;3.95;;;3.03;;
11414;SDS011;5763;42.714;23.244;2023-12-22T03:51:45;4.15;;;3.75;;
11414;SDS011;5763;42.714;23.244;2023-12-22T03:54:13;7.50;;;3.03;;
11414;SDS011;5763;42.714;23.244;2023-12-22T03:56:41;4.18;;;3.10;;
11414;SDS011;5763;42.714;23.244;2023-12-22T03:59:08;6.85;;;3.40;;
11414;SDS011;5763;42.714;23.244;2023-12-22T04:01:34;4.63;;;2.80;;
11414;SDS011;5763;42.714;23.244;2023-12-22T04:04:08;5.07;;;3.03;;
11414;SDS011;5763;42.714;23.244;2023-12-22T04:06:37;4.88;;;3.35;;
11414;SDS011;5763;42.714;23.244;2023-12-22T04:09:05;5.15;;;3.58;;
11414;SDS011;5763;42.714;23.244;2023-12-22T04:11:32;5.63;;;3.20;;
11414;SDS011;5763;42.714;23.244;2023-12-22T04:14:00;5.70;;;3.28;;
11414;SDS011;5763;42.714;23.244;2023-12-22T04:16:27;8.40;;;3.63;;
11414;SDS011;5763;42.714;23.244;2023-12-22T04:18:55;3.70;;;2.95;;
11414;SDS011;5763;42.714;23.244;2023-12-22T04:21:23;7.47;;;4.10;;
11414;SDS011;5763;42.714;23.244;2023-12-22T04:23:52;6.43;;;4.18;;
11414;SDS011;5763;42.714;23.244;2023-12-22T04:26:19;4.65;;;2.97;;
11414;SDS011;5763;42.714;23.244;2023-12-22T04:28:46;7.50;;;4.30;;
11414;SDS011;5763;42.714;23.244;2023-12-22T04:31:13;5.88;;;3.90;;
11414;SDS011;5763;42.714;23.244;2023-12-22T04:33:40;4.07;;;3.67;;
11414;SDS011;5763;42.714;23.244;2023-12-22T04:36:07;6.50;;;3.17;;
11414;SDS011;5763;42.714;23.244;2023-12-22T04:38:36;6.10;;;3.75;;
11414;SDS011;5763;42.714;23.244;2023-12-22T04:41:05;5.25;;;3.38;;
11414;SDS011;5763;42.714;23.244;2023-12-22T04:43:32;8.45;;;3.78;;
11414;SDS011;5763;42.714;23.244;2023-12-22T04:46:00;5.20;;;4.03;;
11414;SDS011;5763;42.714;23.244;2023-12-22T04:48:27;5.32;;;3.63;;
11414;SDS011;5763;42.714;23.244;2023-12-22T04:50:54;4.45;;;4.05;;
11414;SDS011;5763;42.714;23.244;2023-12-22T04:53:22;4.47;;;3.38;;
11414;SDS011;5763;42.714;23.244;2023-12-22T04:55:50;3.80;;;2.75;;
11414;SDS011;5763;42.714;23.244;2023-12-22T04:58:17;4.75;;;3.75;;
11414;SDS011;5763;42.714;23.244;2023-12-22T05:00:44;3.85;;;2.47;;
11414;SDS011;5763;42.714;23.244;2023-12-22T05:03:11;2.97;;;2.42;;
11414;SDS011;5763;42.714;23.244;2023-12-22T05:05:39;3.63;;;2.60;;
11414;SDS011;5763;42.714;23.244;2023-12-22T05:08:06;2.13;;;1.27;;
11414;SDS011;5763;42.714;23.244;2023-12-22T05:10:33;1.38;;;1.02;;
11414;SDS011;5763;42.714;23.244;2023-12-22T05:13:02;2.33;;;1.08;;
11414;SDS011;5763;42.714;23.244;2023-12-22T05:15:30;2.28;;;0.82;;
11414;SDS011;5763;42.714;23.244;2023-12-22T05:17:57;0.30;;;0.30;;
11414;SDS011;5763;42.714;23.244;2023-12-22T05:20:24;1.15;;;0.38;;
11414;SDS011;5763;42.714;23.244;2023-12-22T05:22:52;0.50;;;0.50;;
11414;SDS011;5763;42.714;23.244;2023-12-22T05:25:19;2.45;;;1.25;;
11414;SDS011;5763;42.714;23.244;2023-12-22T05:27:46;1.80;;;1.38;;
11414;SDS011;5763;42.714;23.244;2023-12-22T05:30:33;1.77;;;1.67;;
11414;SDS011;5763;42.714;23.244;2023-12-22T05:33:00;4.68;;;2.53;;
11414;SDS011;5763;42.714;23.244;2023-12-22T05:35:27;4.13;;;1.98;;
11414;SDS011;5763;42.714;23.244;2023-12-22T05:37:55;3.55;;;2.58;;
11414;SDS011;5763;42.714;23.244;2023-12-22T05:40:25;3.13;;;2.30;;
11414;SDS011;5763;42.714;23.244;2023-12-22T05:42:52;11.88;;;2.35;;
11414;SDS011;5763;42.714;23.244;2023-12-22T05:45:19;3.55;;;2.33;;
11414;SDS011;5763;42.714;23.244;2023-12-22T05:47:48;2.15;;;1.77;;
11414;SDS011;5763;42.714;23.244;2023-12-22T05:50:15;3.65;;;1.75;;
11414;SDS011;5763;42.714;23.244;2023-12-22T05:52:42;0.90;;;0.68;;
11414;SDS011;5763;42.714;23.244;2023-12-22T05:55:10;1.73;;;1.60;;
11414;SDS011;5763;42.714;23.244;2023-12-22T05:57:38;0.45;;;0.30;;
11414;SDS011;5763;42.714;23.244;2023-12-22T06:00:05;0.40;;;0.40;;
11414;SDS011;5763;42.714;23.244;2023-12-22T06:02:36;0.57;;;0.57;;
11414;SDS011;5763;42.714;23.244;2023-12-22T06:05:05;3.05;;;1.08;;
11414;SDS011;5763;42.714;23.244;2023-12-22T06:07:33;5.15;;;1.73;;
11414;SDS011;5763;42.714;23.244;2023-12-22T06:10:02;3.33;;;2.42;;
11414;SDS011;5763;42.714;23.244;2023-12-22T06:12:30;1.88;;;1.63;;
11414;SDS011;5763;42.714;23.244;2023-12-22T06:14:57;1.50;;;0.80;;
11414;SDS011;5763;42.714;23.244;2023-12-22T06:17:25;0.60;;;0.60;;
11414;SDS011;5763;42.714;23.244;2023-12-22T06:19:52;2.17;;;1.27;;
11414;SDS011;5763;42.714;23.244;2023-12-22T06:22:21;2.47;;;1.35;;
11414;SDS011;5763;42.714;23.244;2023-12-22T06:24:49;2.17;;;1.60;;
11414;SDS011;5763;42.714;23.244;2023-12-22T06:27:16;3.65;;;1.92;;
11414;SDS011;5763;42.714;23.244;2023-12-22T06:29:43;1.35;;;1.23;;
11414;SDS011;5763;42.714;23.244;2023-12-22T06:32:10;4.57;;;2.72;;
11414;SDS011;5763;42.714;23.244;2023-12-22T06:34:38;2.40;;;1.80;;
11414;SDS011;5763;42.714;23.244;2023-12-22T06:37:05;1.77;;;1.50;;
11414;SDS011;5763;42.714;23.244;2023-12-22T06:39:34;3.78;;;2.22;;
11414;SDS011;5763;42.714;23.244;2023-12-22T06:42:02;2.55;;;2.10;;
11414;SDS011;5763;42.714;23.244;2023-12-22T06:44:31;2.60;;;1.70;;
11414;SDS011;5763;42.714;23.244;2023-12-22T06:47:01;2.88;;;2.13;;
11414;SDS011;5763;42.714;23.244;2023-12-22T06:49:28;1.52;;;1.42;;
11414;SDS011;5763;42.714;23.244;2023-12-22T06:51:56;1.60;;;1.50;;
11414;SDS011;5763;42.714;23.244;2023-12-22T06:54:23;4.38;;;1.85;;
11414;SDS011;5763;42.714;23.244;2023-12-22T06:56:52;1.83;;;1.38;;
11414;SDS011;5763;42.714;23.244;2023-12-22T06:59:19;3.67;;;2.05;;
11414;SDS011;5763;42.714;23.244;2023-12-22T07:01:46;3.03;;;1.58;;
11414;SDS011;5763;42.714;23.244;2023-12-22T07:04:13;1.67;;;1.30;;
11414;SDS011;5763;42.714;23.244;2023-12-22T07:06:41;1.95;;;1.08;;
11414;SDS011;5763;42.714;23.244;2023-12-22T07:11:56;2.08;;;1.73;;
11414;SDS011;5763;42.714;23.244;2023-12-22T07:14:23;2.97;;;1.48;;
11414;SDS011;5763;42.714;23.244;2023-12-22T07:16:50;2.42;;;1.75;;
11414;SDS011;5763;42.714;23.244;2023-12-22T07:19:18;1.77;;;1.52;;
11414;SDS011;5763;42.714;23.244;2023-12-22T07:21:45;4.25;;;2.28;;
11414;SDS011;5763;42.714;23.244;2023-12-22T07:24:12;2.42;;;1.95;;
11414;SDS011;5763;42.714;23.244;2023-12-22T07:26:41;2.53;;;1.88;;
11414;SDS011;5763;42.714;23.244;2023-12-22T07:29:11;2.65;;;1.63;;
11414;SDS011;5763;42.714;23.244;2023-12-22T07:31:38;2.00;;;1.48;;
11414;SDS011;5763;42.714;23.244;2023-12-22T07:34:05;3.45;;;2.50;;
11414;SDS011;5763;42.714;23.244;2023-12-22T07:36:33;1.63;;;1.13;;
11414;SDS011;5763;42.714;23.244;2023-12-22T07:39:00;4.60;;;1.92;;
11414;SDS011;5763;42.714;23.244;2023-12-22T07:41:27;5.85;;;2.05;;
11414;SDS011;5763;42.714;23.244;2023-12-22T07:43:55;1.92;;;1.67;;
11414;SDS011;5763;42.714;23.244;2023-12-22T07:46:24;2.88;;;2.30;;
11414;SDS011;5763;42.714;23.244;2023-12-22T07:48:51;1.83;;;1.40;;
11414;SDS011;5763;42.714;23.244;2023-12-22T07:51:19;2.03;;;1.00;;
11414;SDS011;5763;42.714;23.244;2023-12-22T07:53:46;1.02;;;0.70;;
11414;SDS011;5763;42.714;23.244;2023-12-22T07:56:13;2.30;;;1.50;;
11414;SDS011;5763;42.714;23.244;2023-12-22T07:58:40;1.10;;;1.05;;
11414;SDS011;5763;42.714;23.244;2023-12-22T08:01:10;3.42;;;1.70;;
11414;SDS011;5763;42.714;23.244;2023-12-22T08:03:39;2.85;;;2.20;;
11414;SDS011;5763;42.714;23.244;2023-12-22T08:06:07;2.85;;;1.70;;
11414;SDS011;5763;42.714;23.244;2023-12-22T08:08:34;2.33;;;2.00;;
11414;SDS011;5763;42.714;23.244;2023-12-22T08:11:02;3.42;;;2.30;;
11414;SDS011;5763;42.714;23.244;2023-12-22T08:13:29;2.80;;;2.30;;
11414;SDS011;5763;42.714;23.244;2023-12-22T08:15:57;3.70;;;1.80;;
11414;SDS011;5763;42.714;23.244;2023-12-22T08:18:24;3.08;;;1.92;;
11414;SDS011;5763;42.714;23.244;2023-12-22T08:20:53;2.05;;;1.52;;
11414;SDS011;5763;42.714;23.244;2023-12-22T08:23:21;1.90;;;1.60;;
11414;SDS011;5763;42.714;23.244;2023-12-22T08:25:49;2.35;;;1.63;;
11414;SDS011;5763;42.714;23.244;2023-12-22T08:28:16;3.15;;;1.75;;
11414;SDS011;5763;42.714;23.244;2023-12-22T08:30:43;1.70;;;1.23;;
11414;SDS011;5763;42.714;23.244;2023-12-22T08:33:11;2.47;;;1.85;;
11414;SDS011;5763;42.714;23.244;2023-12-22T08:35:38;1.60;;;1.50;;
11414;SDS011;5763;42.714;23.244;2023-12-22T08:38:07;2.75;;;1.63;;
11414;SDS011;5763;42.714;23.244;2023-12-22T08:40:34;1.30;;;1.23;;
11414;SDS011;5763;42.714;23.244;2023-12-22T08:43:01;2.88;;;1.40;;
11414;SDS011;5763;42.714;23.244;2023-12-22T08:45:29;1.20;;;1.10;;
11414;SDS011;5763;42.714;23.244;2023-12-22T08:47:56;0.85;;;0.77;;
11414;SDS011;5763;42.714;23.244;2023-12-22T08:50:24;2.45;;;1.23;;
11414;SDS011;5763;42.714;23.244;2023-12-22T08:52:51;2.38;;;1.30;;
11414;SDS011;5763;42.714;23.244;2023-12-22T08:55:20;3.63;;;1.83;;
11414;SDS011;5763;42.714;23.244;2023-12-22T08:57:47;3.15;;;1.80;;
11414;SDS011;5763;42.714;23.244;2023-12-22T09:00:15;3.20;;;1.42;;
11414;SDS011;5763;42.714;23.244;2023-12-22T09:02:43;2.78;;;1.95;;
11414;SDS011;5763;42.714;23.244;2023-12-22T09:05:10;6.75;;;1.63;;
11414;SDS011;5763;42.714;23.244;2023-12-22T09:07:37;2.92;;;2.63;;
11414;SDS011;5763;42.714;23.244;2023-12-22T09:10:05;2.80;;;1.92;;
11414;SDS011;5763;42.714;23.244;2023-12-22T09:12:34;6.07;;;2.22;;
11414;SDS011;5763;42.714;23.244;2023-12-22T09:15:01;2.67;;;1.83;;
11414;SDS011;5763;42.714;23.244;2023-12-22T09:17:29;2.53;;;2.00;;
11414;SDS011;5763;42.714;23.244;2023-12-22T09:19:57;2.67;;;2.08;;
11414;SDS011;5763;42.714;23.244;2023-12-22T09:22:25;2.35;;;1.92;;
11414;SDS011;5763;42.714;23.244;2023-12-22T09:24:52;1.35;;;1.25;;
11414;SDS011;5763;42.714;23.244;2023-12-22T09:27:20;4.47;;;2.05;;
11414;SDS011;5763;42.714;23.244;2023-12-22T09:29:49;1.45;;;1.13;;
11414;SDS011;5763;42.714;23.244;2023-12-22T09:32:16;2.80;;;2.42;;
11414;SDS011;5763;42.714;23.244;2023-12-22T09:34:43;4.78;;;2.70;;
11414;SDS011;5763;42.714;23.244;2023-12-22T09:37:14;6.80;;;3.33;;
11414;SDS011;5763;42.714;23.244;2023-12-22T09:39:41;4.15;;;2.63;;
11414;SDS011;5763;42.714;23.244;2023-12-22T09:42:08;3.65;;;3.25;;
11414;SDS011;5763;42.714;23.244;2023-12-22T09:44:35;4.88;;;1.75;;
11414;SDS011;5763;42.714;23.244;2023-12-22T09:47:07;2.50;;;2.05;;
11414;SDS011;5763;42.714;23.244;2023-12-22T09:49:37;3.05;;;1.40;;
11414;SDS011;5763;42.714;23.244;2023-12-22T09:52:07;4.72;;;1.55;;
11414;SDS011;5763;42.714;23.244;2023-12-22T09:54:35;2.00;;;0.98;;
11414;SDS011;5763;42.714;23.244;2023-12-22T09:57:03;1.73;;;1.35;;
11414;SDS011;5763;42.714;23.244;2023-12-22T09:59:32;2.30;;;1.38;;
11414;SDS011;5763;42.714;23.244;2023-12-22T10:02:01;3.50;;;2.17;;
11414;SDS011;5763;42.714;23.244;2023-12-22T10:04:32;2.25;;;1.67;;
11414;SDS011;5763;42.714;23.244;2023-12-22T10:07:00;2.10;;;1.35;;
11414;SDS011;5763;42.714;23.244;2023-12-22T10:09:29;1.65;;;1.35;;
11414;SDS011;5763;42.714;23.244;2023-12-22T10:11:57;2.38;;;1.60;;
11414;SDS011;5763;42.714;23.244;2023-12-22T10:14:27;3.33;;;1.92;;
11414;SDS011;5763;42.714;23.244;2023-12-22T10:16:56;2.47;;;2.28;;
11414;SDS011;5763;42.714;23.244;2023-12-22T10:19:23;2.47;;;1.95;;
11414;SDS011;5763;42.714;23.244;2023-12-22T10:21:53;6.18;;;2.83;;
11414;SDS011;5763;42.714;23.244;2023-12-22T10:27:12;1.80;;;1.70;;
11414;SDS011;5763;42.714;23.244;2023-12-22T10:29:40;1.83;;;1.48;;
11414;SDS011;5763;42.714;23.244;2023-12-22T10:32:07;3.30;;;1.67;;
11414;SDS011;5763;42.714;23.244;2023-12-22T10:34:35;1.73;;;1.60;;
11414;SDS011;5763;42.714;23.244;2023-12-22T10:37:05;2.17;;;1.70;;
11414;SDS011;5763;42.714;23.244;2023-12-22T10:39:32;2.42;;;1.50;;
11414;SDS011;5763;42.714;23.244;2023-12-22T10:41:59;4.80;;;2.40;;
11414;SDS011;5763;42.714;23.244;2023-12-22T10:44:27;3.08;;;1.70;;
11414;SDS011;5763;42.714;23.244;2023-12-22T10:46:55;2.22;;;1.88;;
11414;SDS011;5763;42.714;23.244;2023-12-22T10:49:23;2.42;;;1.33;;
11414;SDS011;5763;42.714;23.244;2023-12-22T10:51:51;1.45;;;0.75;;
11414;SDS011;5763;42.714;23.244;2023-12-22T10:54:21;1.40;;;1.23;;
11414;SDS011;5763;42.714;23.244;2023-12-22T10:56:48;0.90;;;0.77;;
11414;SDS011;5763;42.714;23.244;2023-12-22T10:59:16;1.08;;;0.77;;
11414;SDS011;5763;42.714;23.244;2023-12-22T11:01:45;1.10;;;1.00;;
11414;SDS011;5763;42.714;23.244;2023-12-22T11:04:16;1.92;;;1.30;;
11414;SDS011;5763;42.714;23.244;2023-12-22T11:06:49;1.20;;;1.10;;
11414;SDS011;5763;42.714;23.244;2023-12-22T11:09:19;0.90;;;0.55;;
11414;SDS011;5763;42.714;23.244;2023-12-22T11:11:51;1.25;;;0.55;;
11414;SDS011;5763;42.714;23.244;2023-12-22T11:14:19;0.75;;;0.63;;
11414;SDS011;5763;42.714;23.244;2023-12-22T11:16:48;0.75;;;0.63;;
11414;SDS011;5763;42.714;23.244;2023-12-22T11:19:16;1.38;;;0.73;;
11414;SDS011;5763;42.714;23.244;2023-12-22T11:21:45;0.73;;;0.50;;
11414;SDS011;5763;42.714;23.244;2023-12-22T11:24:13;0.85;;;0.45;;
11414;SDS011;5763;42.714;23.244;2023-12-22T11:26:44;0.25;;;0.20;;
11414;SDS011;5763;42.714;23.244;2023-12-22T11:29:14;0.68;;;0.57;;
11414;SDS011;5763;42.714;23.244;2023-12-22T11:31:44;0.60;;;0.60;;
11414;SDS011;5763;42.714;23.244;2023-12-22T11:34:14;0.30;;;0.30;;
11414;SDS011;5763;42.714;23.244;2023-12-22T11:36:44;0.40;;;0.30;;
11414;SDS011;5763;42.714;23.244;2023-12-22T11:39:14;0.40;;;0.40;;
11414;SDS011;5763;42.714;23.244;2023-12-22T11:41:41;1.27;;;0.63;;
11414;SDS011;5763;42.714;23.244;2023-12-22T11:44:12;0.32;;;0.32;;
11414;SDS011;5763;42.714;23.244;2023-12-22T11:46:40;1.02;;;0.60;;
11414;SDS011;5763;42.714;23.244;2023-12-22T11:49:07;0.32;;;0.32;;
11414;SDS011;5763;42.714;23.244;2023-12-22T11:51:34;0.93;;;0.57;;
11414;SDS011;5763;42.714;23.244;2023-12-22T11:54:02;0.25;;;0.20;;
11414;SDS011;5763;42.714;23.244;2023-12-22T11:56:29;0.20;;;0.20;;
11414;SDS011;5763;42.714;23.244;2023-12-22T11:58:58;0.30;;;0.30;;
11414;SDS011;5763;42.714;23.244;2023-12-22T12:01:26;0.88;;;0.50;;
11414;SDS011;5763;42.714;23.244;2023-12-22T12:03:57;0.65;;;0.60;;
11414;SDS011;5763;42.714;23.244;2023-12-22T12:06:33;0.85;;;0.85;;
11414;SDS011;5763;42.714;23.244;2023-12-22T12:09:04;0.77;;;0.40;;
11414;SDS011;5763;42.714;23.244;2023-12-22T12:14:40;0.30;;;0.25;;
11414;SDS011;5763;42.714;23.244;2023-12-22T12:17:10;0.30;;;0.30;;
11414;SDS011;5763;42.714;23.244;2023-12-22T12:19:38;0.20;;;0.20;;
11414;SDS011;5763;42.714;23.244;2023-12-22T12:22:07;0.40;;;0.40;;
11414;SDS011;5763;42.714;23.244;2023-12-22T12:24:35;0.10;;;0.10;;
11414;SDS011;5763;42.714;23.244;2023-12-22T12:27:03;0.45;;;0.45;;
11414;SDS011;5763;42.714;23.244;2023-12-22T12:29:30;0.20;;;0.20;;
11414;SDS011;5763;42.714;23.244;2023-12-22T12:32:04;0.22;;;0.20;;
11414;SDS011;5763;42.714;23.244;2023-12-22T12:34:32;0.75;;;0.30;;
11414;SDS011;5763;42.714;23.244;2023-12-22T12:37:00;1.35;;;0.57;;
11414;SDS011;5763;42.714;23.244;2023-12-22T12:39:29;0.25;;;0.25;;
11414;SDS011;5763;42.714;23.244;2023-12-22T12:41:59;0.60;;;0.30;;
11414;SDS011;5763;42.714;23.244;2023-12-22T12:44:28;0.30;;;0.20;;
11414;SDS011;5763;42.714;23.244;2023-12-22T12:46:57;0.93;;;0.50;;
11414;SDS011;5763;42.714;23.244;2023-12-22T12:49:26;0.30;;;0.30;;
11414;SDS011;5763;42.714;23.244;2023-12-22T12:51:56;0.15;;;0.10;;
11414;SDS011;5763;42.714;23.244;2023-12-22T12:54:25;2.13;;;0.45;;
11414;SDS011;5763;42.714;23.244;2023-12-22T12:56:53;0.45;;;0.45;;
11414;SDS011;5763;42.714;23.244;2023-12-22T12:59:20;0.40;;;0.40;;
11414;SDS011;5763;42.714;23.244;2023-12-22T13:01:48;0.63;;;0.63;;
11414;SDS011;5763;42.714;23.244;2023-12-22T13:04:16;0.80;;;0.73;;
11414;SDS011;5763;42.714;23.244;2023-12-22T13:06:45;0.75;;;0.60;;
11414;SDS011;5763;42.714;23.244;2023-12-22T13:09:12;1.77;;;0.47;;
11414;SDS011;5763;42.714;23.244;2023-12-22T13:11:40;0.55;;;0.55;;
11414;SDS011;5763;42.714;23.244;2023-12-22T13:14:08;0.90;;;0.60;;
11414;SDS011;5763;42.714;23.244;2023-12-22T13:16:36;0.65;;;0.45;;
11414;SDS011;5763;42.714;23.244;2023-12-22T13:19:04;1.13;;;0.57;;
11414;SDS011;5763;42.714;23.244;2023-12-22T13:21:32;2.05;;;0.50;;
11414;SDS011;5763;42.714;23.244;2023-12-22T13:24:09;4.28;;;0.60;;
11414;SDS011;5763;42.714;23.244;2023-12-22T13:26:41;0.40;;;0.38;;
11414;SDS011;5763;42.714;23.244;2023-12-22T13:29:09;0.60;;;0.60;;
11414;SDS011;5763;42.714;23.244;2023-12-22T13:31:37;0.40;;;0.40;;
11414;SDS011;5763;42.714;23.244;2023-12-22T13:34:08;0.50;;;0.50;;
11414;SDS011;5763;42.714;23.244;2023-12-22T13:36:36;1.08;;;1.00;;
11414;SDS011;5763;42.714;23.244;2023-12-22T13:39:03;0.70;;;0.68;;
11414;SDS011;5763;42.714;23.244;2023-12-22T13:41:33;1.60;;;0.80;;
11414;SDS011;5763;42.714;23.244;2023-12-22T13:44:04;1.58;;;0.70;;
11414;SDS011;5763;42.714;23.244;2023-12-22T13:46:31;0.52;;;0.40;;
11414;SDS011;5763;42.714;23.244;2023-12-22T13:49:00;0.82;;;0.68;;
11414;SDS011;5763;42.714;23.244;2023-12-22T13:51:38;1.27;;;0.85;;
11414;SDS011;5763;42.714;23.244;2023-12-22T13:54:06;0.60;;;0.50;;
11414;SDS011;5763;42.714;23.244;2023-12-22T13:56:35;2.08;;;1.08;;
11414;SDS011;5763;42.714;23.244;2023-12-22T13:59:05;2.50;;;0.60;;
11414;SDS011;5763;42.714;23.244;2023-12-22T14:01:33;1.75;;;0.77;;
11414;SDS011;5763;42.714;23.244;2023-12-22T14:04:00;0.95;;;0.57;;
11414;SDS011;5763;42.714;23.244;2023-12-22T14:06:28;1.45;;;0.73;;
11414;SDS011;5763;42.714;23.244;2023-12-22T14:08:55;0.47;;;0.43;;
11414;SDS011;5763;42.714;23.244;2023-12-22T14:11:23;0.60;;;0.60;;
11414;SDS011;5763;42.714;23.244;2023-12-22T14:13:52;0.22;;;0.22;;
11414;SDS011;5763;42.714;23.244;2023-12-22T14:16:19;0.60;;;0.60;;
11414;SDS011;5763;42.714;23.244;2023-12-22T14:18:46;1.02;;;0.60;;
11414;SDS011;5763;42.714;23.244;2023-12-22T14:21:14;0.43;;;0.40;;
11414;SDS011;5763;42.714;23.244;2023-12-22T14:23:41;0.73;;;0.38;;
11414;SDS011;5763;42.714;23.244;2023-12-22T14:26:08;0.55;;;0.45;;
11414;SDS011;5763;42.714;23.244;2023-12-22T14:28:35;0.40;;;0.25;;
11414;SDS011;5763;42.714;23.244;2023-12-22T14:31:04;3.20;;;0.52;;
11414;SDS011;5763;42.714;23.244;2023-12-22T14:33:31;0.40;;;0.25;;
11414;SDS011;5763;42.714;23.244;2023-12-22T14:35:58;0.45;;;0.40;;
11414;SDS011;5763;42.714;23.244;2023-12-22T14:38:25;0.95;;;0.65;;
11414;SDS011;5763;42.714;23.244;2023-12-22T14:40:53;1.17;;;0.70;;
11414;SDS011;5763;42.714;23.244;2023-12-22T14:43:20;0.40;;;0.40;;
11414;SDS011;5763;42.714;23.244;2023-12-22T14:45:47;0.70;;;0.45;;
11414;SDS011;5763;42.714;23.244;2023-12-22T14:48:16;1.10;;;1.00;;
11414;SDS011;5763;42.714;23.244;2023-12-22T14:50:43;1.13;;;0.63;;
11414;SDS011;5763;42.714;23.244;2023-12-22T14:53:10;0.68;;;0.63;;
11414;SDS011;5763;42.714;23.244;2023-12-22T14:55:37;0.90;;;0.60;;
11414;SDS011;5763;42.714;23.244;2023-12-22T14:58:04;0.90;;;0.52;;
11414;SDS011;5763;42.714;23.244;2023-12-22T15:00:33;1.05;;;0.55;;
11414;SDS011;5763;42.714;23.244;2023-12-22T15:03:00;0.98;;;0.82;;
11414;SDS011;5763;42.714;23.244;2023-12-22T15:05:29;0.85;;;0.63;;